sensor_id;sensor_type;location;lat;lon;timestamp;temperature;humidity
32476;DHT22;18929;48.008;10.882;2023-05-20T00:02:14;16.00;99.90
32476;DHT22;18929;48.008;10.882;2023-05-20T00:04:41;15.90;99.90
32476;DHT22;18929;48.008;10.882;2023-05-20T00:07:08;15.50;99.90
32476;DHT22;18929;48.008;10.882;2023-05-20T00:09:36;15.80;99.90
32476;DHT22;18929;48.008;10.882;2023-05-20T00:12:03;15.70;99.90
32476;DHT22;18929;48.008;10.882;2023-05-20T00:14:30;15.80;99.90
32476;DHT22;18929;48.008;10.882;2023-05-20T00:16:57;15.50;99.90
32476;DHT22;18929;48.008;10.882;2023-05-20T00:19:25;15.60;99.90
32476;DHT22;18929;48.008;10.882;2023-05-20T00:21:52;15.60;99.90
32476;DHT22;18929;48.008;10.882;2023-05-20T00:24:18;15.50;99.90
32476;DHT22;18929;48.008;10.882;2023-05-20T00:26:45;15.60;99.90
32476;DHT22;18929;48.008;10.882;2023-05-20T00:29:12;15.60;99.90
32476;DHT22;18929;48.008;10.882;2023-05-20T00:31:39;15.60;99.90
32476;DHT22;18929;48.008;10.882;2023-05-20T00:34:06;15.50;99.90
32476;DHT22;18929;48.008;10.882;2023-05-20T00:36:34;15.40;99.90
32476;DHT22;18929;48.008;10.882;2023-05-20T00:39:01;15.40;99.90
32476;DHT22;18929;48.008;10.882;2023-05-20T00:41:28;15.30;99.90
32476;DHT22;18929;48.008;10.882;2023-05-20T00:43:55;15.30;99.90
32476;DHT22;18929;48.008;10.882;2023-05-20T00:46:22;14.60;99.90
32476;DHT22;18929;48.008;10.882;2023-05-20T00:48:49;15.10;99.90
32476;DHT22;18929;48.008;10.882;2023-05-20T00:51:16;14.60;99.90
32476;DHT22;18929;48.008;10.882;2023-05-20T00:53:44;15.20;99.90
32476;DHT22;18929;48.008;10.882;2023-05-20T00:56:11;15.50;99.90
32476;DHT22;18929;48.008;10.882;2023-05-20T00:58:38;15.70;99.90
32476;DHT22;18929;48.008;10.882;2023-05-20T01:01:05;15.70;99.90
32476;DHT22;18929;48.008;10.882;2023-05-20T01:03:32;15.70;99.90
32476;DHT22;18929;48.008;10.882;2023-05-20T01:05:58;15.50;99.90
32476;DHT22;18929;48.008;10.882;2023-05-20T01:08:25;15.40;99.90
32476;DHT22;18929;48.008;10.882;2023-05-20T01:10:55;15.50;99.90
32476;DHT22;18929;48.008;10.882;2023-05-20T01:13:24;15.30;99.90
32476;DHT22;18929;48.008;10.882;2023-05-20T01:15:52;15.40;99.90
32476;DHT22;18929;48.008;10.882;2023-05-20T01:18:21;15.40;99.90
32476;DHT22;18929;48.008;10.882;2023-05-20T01:20:50;15.50;99.90
32476;DHT22;18929;48.008;10.882;2023-05-20T01:23:20;15.70;99.90
32476;DHT22;18929;48.008;10.882;2023-05-20T01:25:47;15.70;99.90
32476;DHT22;18929;48.008;10.882;2023-05-20T01:28:14;15.80;99.90
32476;DHT22;18929;48.008;10.882;2023-05-20T01:30:43;15.50;99.90
32476;DHT22;18929;48.008;10.882;2023-05-20T01:33:13;14.90;99.90
32476;DHT22;18929;48.008;10.882;2023-05-20T01:35:40;14.40;99.90
32476;DHT22;18929;48.008;10.882;2023-05-20T01:38:07;14.80;99.90
32476;DHT22;18929;48.008;10.882;2023-05-20T01:40:36;15.00;99.90
32476;DHT22;18929;48.008;10.882;2023-05-20T01:43:03;15.10;99.90
32476;DHT22;18929;48.008;10.882;2023-05-20T01:45:30;15.10;99.90
32476;DHT22;18929;48.008;10.882;2023-05-20T01:47:57;15.20;99.90
32476;DHT22;18929;48.008;10.882;2023-05-20T01:50:26;15.30;99.90
32476;DHT22;18929;48.008;10.882;2023-05-20T01:52:52;15.50;99.90
32476;DHT22;18929;48.008;10.882;2023-05-20T01:55:19;15.50;99.90
32476;DHT22;18929;48.008;10.882;2023-05-20T01:57:48;15.70;99.90
32476;DHT22;18929;48.008;10.882;2023-05-20T02:00:15;15.60;99.90
32476;DHT22;18929;48.008;10.882;2023-05-20T02:02:42;15.30;99.90
32476;DHT22;18929;48.008;10.882;2023-05-20T02:05:08;15.20;99.90
32476;DHT22;18929;48.008;10.882;2023-05-20T02:07:35;15.00;99.90
32476;DHT22;18929;48.008;10.882;2023-05-20T02:10:02;15.00;99.90
32476;DHT22;18929;48.008;10.882;2023-05-20T02:12:29;15.40;99.90
32476;DHT22;18929;48.008;10.882;2023-05-20T02:14:58;15.50;99.90
32476;DHT22;18929;48.008;10.882;2023-05-20T02:17:25;15.00;99.90
32476;DHT22;18929;48.008;10.882;2023-05-20T02:19:52;14.80;99.90
32476;DHT22;18929;48.008;10.882;2023-05-20T02:22:19;14.80;99.90
32476;DHT22;18929;48.008;10.882;2023-05-20T02:24:45;15.00;99.90
32476;DHT22;18929;48.008;10.882;2023-05-20T02:27:12;15.00;99.90
32476;DHT22;18929;48.008;10.882;2023-05-20T02:29:39;15.00;99.90
32476;DHT22;18929;48.008;10.882;2023-05-20T02:32:07;14.90;99.90
32476;DHT22;18929;48.008;10.882;2023-05-20T02:34:34;14.80;99.90
32476;DHT22;18929;48.008;10.882;2023-05-20T02:37:01;14.90;99.90
32476;DHT22;18929;48.008;10.882;2023-05-20T02:39:28;15.00;99.90
32476;DHT22;18929;48.008;10.882;2023-05-20T02:41:54;14.60;99.90
32476;DHT22;18929;48.008;10.882;2023-05-20T02:44:21;14.20;99.90
32476;DHT22;18929;48.008;10.882;2023-05-20T02:46:48;14.70;99.90
32476;DHT22;18929;48.008;10.882;2023-05-20T02:49:16;15.00;99.90
32476;DHT22;18929;48.008;10.882;2023-05-20T02:51:43;14.80;99.90
32476;DHT22;18929;48.008;10.882;2023-05-20T02:54:10;14.60;99.90
32476;DHT22;18929;48.008;10.882;2023-05-20T02:56:36;14.90;99.90
32476;DHT22;18929;48.008;10.882;2023-05-20T02:59:04;15.00;99.90
32476;DHT22;18929;48.008;10.882;2023-05-20T03:01:31;14.90;99.90
32476;DHT22;18929;48.008;10.882;2023-05-20T03:04:01;15.10;99.90
32476;DHT22;18929;48.008;10.882;2023-05-20T03:06:29;13.80;99.90
32476;DHT22;18929;48.008;10.882;2023-05-20T03:08:56;13.90;99.90
32476;DHT22;18929;48.008;10.882;2023-05-20T03:11:23;14.10;99.90
32476;DHT22;18929;48.008;10.882;2023-05-20T03:13:50;14.70;99.90
32476;DHT22;18929;48.008;10.882;2023-05-20T03:16:17;14.90;99.90
32476;DHT22;18929;48.008;10.882;2023-05-20T03:18:43;14.90;99.90
32476;DHT22;18929;48.008;10.882;2023-05-20T03:21:10;15.00;99.90
32476;DHT22;18929;48.008;10.882;2023-05-20T03:23:39;14.90;99.90
32476;DHT22;18929;48.008;10.882;2023-05-20T03:26:05;15.00;99.90
32476;DHT22;18929;48.008;10.882;2023-05-20T03:28:32;15.20;99.90
32476;DHT22;18929;48.008;10.882;2023-05-20T03:30:59;15.00;99.90
32476;DHT22;18929;48.008;10.882;2023-05-20T03:33:26;15.20;99.90
32476;DHT22;18929;48.008;10.882;2023-05-20T03:35:53;15.00;99.90
32476;DHT22;18929;48.008;10.882;2023-05-20T03:38:20;15.20;99.90
32476;DHT22;18929;48.008;10.882;2023-05-20T03:40:48;15.20;99.90
32476;DHT22;18929;48.008;10.882;2023-05-20T03:43:15;15.30;99.90
32476;DHT22;18929;48.008;10.882;2023-05-20T03:45:42;15.20;99.90
32476;DHT22;18929;48.008;10.882;2023-05-20T03:48:09;15.30;99.90
32476;DHT22;18929;48.008;10.882;2023-05-20T03:50:35;15.20;99.90
32476;DHT22;18929;48.008;10.882;2023-05-20T03:53:02;15.30;99.90
32476;DHT22;18929;48.008;10.882;2023-05-20T03:55:29;15.00;99.90
32476;DHT22;18929;48.008;10.882;2023-05-20T03:57:58;15.00;99.90
32476;DHT22;18929;48.008;10.882;2023-05-20T04:00:25;15.00;99.90
32476;DHT22;18929;48.008;10.882;2023-05-20T04:02:52;15.20;99.90
32476;DHT22;18929;48.008;10.882;2023-05-20T04:05:20;14.60;99.90
32476;DHT22;18929;48.008;10.882;2023-05-20T04:07:47;14.70;99.90
32476;DHT22;18929;48.008;10.882;2023-05-20T04:10:14;14.20;99.90
32476;DHT22;18929;48.008;10.882;2023-05-20T04:12:41;14.10;99.90
32476;DHT22;18929;48.008;10.882;2023-05-20T04:15:10;14.60;99.90
32476;DHT22;18929;48.008;10.882;2023-05-20T04:17:37;14.80;99.90
32476;DHT22;18929;48.008;10.882;2023-05-20T04:20:05;14.60;99.90
32476;DHT22;18929;48.008;10.882;2023-05-20T04:22:32;14.50;99.90
32476;DHT22;18929;48.008;10.882;2023-05-20T04:24:59;14.30;99.90
32476;DHT22;18929;48.008;10.882;2023-05-20T04:27:27;14.20;99.90
32476;DHT22;18929;48.008;10.882;2023-05-20T04:29:54;14.10;99.90
32476;DHT22;18929;48.008;10.882;2023-05-20T04:32:24;14.40;99.90
32476;DHT22;18929;48.008;10.882;2023-05-20T04:34:52;14.40;99.90
32476;DHT22;18929;48.008;10.882;2023-05-20T04:37:20;14.40;99.90
32476;DHT22;18929;48.008;10.882;2023-05-20T04:39:49;14.80;99.90
32476;DHT22;18929;48.008;10.882;2023-05-20T04:42:16;15.00;99.90
32476;DHT22;18929;48.008;10.882;2023-05-20T04:44:44;15.00;99.90
32476;DHT22;18929;48.008;10.882;2023-05-20T04:47:12;14.90;99.90
32476;DHT22;18929;48.008;10.882;2023-05-20T04:49:40;14.20;99.90
32476;DHT22;18929;48.008;10.882;2023-05-20T04:52:07;14.10;99.90
32476;DHT22;18929;48.008;10.882;2023-05-20T04:54:34;14.30;99.90
32476;DHT22;18929;48.008;10.882;2023-05-20T04:57:01;13.60;99.90
32476;DHT22;18929;48.008;10.882;2023-05-20T04:59:28;13.70;99.90
32476;DHT22;18929;48.008;10.882;2023-05-20T05:01:54;14.00;99.90
32476;DHT22;18929;48.008;10.882;2023-05-20T05:04:21;14.40;99.90
32476;DHT22;18929;48.008;10.882;2023-05-20T05:06:49;14.20;99.90
32476;DHT22;18929;48.008;10.882;2023-05-20T05:09:16;14.20;99.90
32476;DHT22;18929;48.008;10.882;2023-05-20T05:11:43;14.60;99.90
32476;DHT22;18929;48.008;10.882;2023-05-20T05:14:10;14.80;99.90
32476;DHT22;18929;48.008;10.882;2023-05-20T05:16:37;14.80;99.90
32476;DHT22;18929;48.008;10.882;2023-05-20T05:19:04;14.80;99.90
32476;DHT22;18929;48.008;10.882;2023-05-20T05:21:30;14.80;99.90
32476;DHT22;18929;48.008;10.882;2023-05-20T05:23:58;14.70;99.90
32476;DHT22;18929;48.008;10.882;2023-05-20T05:26:25;14.40;99.90
32476;DHT22;18929;48.008;10.882;2023-05-20T05:28:53;14.20;99.90
32476;DHT22;18929;48.008;10.882;2023-05-20T05:31:20;14.40;99.90
32476;DHT22;18929;48.008;10.882;2023-05-20T05:33:46;14.10;99.90
32476;DHT22;18929;48.008;10.882;2023-05-20T05:36:14;14.20;99.90
32476;DHT22;18929;48.008;10.882;2023-05-20T05:38:40;14.50;99.90
32476;DHT22;18929;48.008;10.882;2023-05-20T05:41:09;13.80;99.90
32476;DHT22;18929;48.008;10.882;2023-05-20T05:43:36;13.80;99.90
32476;DHT22;18929;48.008;10.882;2023-05-20T05:46:03;13.80;99.90
32476;DHT22;18929;48.008;10.882;2023-05-20T05:48:30;13.80;99.90
32476;DHT22;18929;48.008;10.882;2023-05-20T05:50:57;14.30;99.90
32476;DHT22;18929;48.008;10.882;2023-05-20T05:53:23;14.60;99.90
32476;DHT22;18929;48.008;10.882;2023-05-20T05:55:50;14.70;99.90
32476;DHT22;18929;48.008;10.882;2023-05-20T05:58:18;14.50;99.90
32476;DHT22;18929;48.008;10.882;2023-05-20T06:00:45;14.20;99.90
32476;DHT22;18929;48.008;10.882;2023-05-20T06:03:12;14.50;99.90
32476;DHT22;18929;48.008;10.882;2023-05-20T06:05:39;14.60;99.90
32476;DHT22;18929;48.008;10.882;2023-05-20T06:08:05;14.70;99.90
32476;DHT22;18929;48.008;10.882;2023-05-20T06:10:33;14.70;99.90
32476;DHT22;18929;48.008;10.882;2023-05-20T06:13:00;14.70;99.90
32476;DHT22;18929;48.008;10.882;2023-05-20T06:15:28;14.10;99.90
32476;DHT22;18929;48.008;10.882;2023-05-20T06:17:55;14.30;99.90
32476;DHT22;18929;48.008;10.882;2023-05-20T06:20:21;14.60;99.90
32476;DHT22;18929;48.008;10.882;2023-05-20T06:22:48;14.80;99.90
32476;DHT22;18929;48.008;10.882;2023-05-20T06:25:15;14.20;99.90
32476;DHT22;18929;48.008;10.882;2023-05-20T06:27:42;14.40;99.90
32476;DHT22;18929;48.008;10.882;2023-05-20T06:30:09;13.80;99.90
32476;DHT22;18929;48.008;10.882;2023-05-20T06:32:37;14.00;99.90
32476;DHT22;18929;48.008;10.882;2023-05-20T06:35:04;14.10;99.90
32476;DHT22;18929;48.008;10.882;2023-05-20T06:37:31;13.70;99.90
32476;DHT22;18929;48.008;10.882;2023-05-20T06:39:58;14.10;99.90
32476;DHT22;18929;48.008;10.882;2023-05-20T06:42:25;14.20;99.90
32476;DHT22;18929;48.008;10.882;2023-05-20T06:44:52;13.80;99.90
32476;DHT22;18929;48.008;10.882;2023-05-20T06:47:18;13.50;99.90
32476;DHT22;18929;48.008;10.882;2023-05-20T06:49:47;13.60;99.90
32476;DHT22;18929;48.008;10.882;2023-05-20T06:52:13;13.60;99.90
32476;DHT22;18929;48.008;10.882;2023-05-20T06:54:40;13.40;99.90
32476;DHT22;18929;48.008;10.882;2023-05-20T06:57:07;13.80;99.90
32476;DHT22;18929;48.008;10.882;2023-05-20T06:59:34;14.30;99.90
32476;DHT22;18929;48.008;10.882;2023-05-20T07:02:01;14.50;99.90
32476;DHT22;18929;48.008;10.882;2023-05-20T07:04:28;14.80;99.90
32476;DHT22;18929;48.008;10.882;2023-05-20T07:06:56;15.00;99.90
32476;DHT22;18929;48.008;10.882;2023-05-20T07:09:23;15.00;99.90
32476;DHT22;18929;48.008;10.882;2023-05-20T07:11:49;14.80;99.90
32476;DHT22;18929;48.008;10.882;2023-05-20T07:14:16;15.00;99.90
32476;DHT22;18929;48.008;10.882;2023-05-20T07:16:43;14.40;99.90
32476;DHT22;18929;48.008;10.882;2023-05-20T07:19:10;14.30;99.90
32476;DHT22;18929;48.008;10.882;2023-05-20T07:21:37;14.60;99.90
32476;DHT22;18929;48.008;10.882;2023-05-20T07:24:05;14.80;99.90
32476;DHT22;18929;48.008;10.882;2023-05-20T07:26:32;14.60;99.90
32476;DHT22;18929;48.008;10.882;2023-05-20T07:29:01;14.60;99.90
32476;DHT22;18929;48.008;10.882;2023-05-20T07:31:27;13.70;99.90
32476;DHT22;18929;48.008;10.882;2023-05-20T07:33:54;14.40;99.90
32476;DHT22;18929;48.008;10.882;2023-05-20T07:36:21;14.50;99.90
32476;DHT22;18929;48.008;10.882;2023-05-20T07:38:48;14.00;99.90
32476;DHT22;18929;48.008;10.882;2023-05-20T07:41:17;14.30;99.90
32476;DHT22;18929;48.008;10.882;2023-05-20T07:43:44;15.00;99.90
32476;DHT22;18929;48.008;10.882;2023-05-20T07:46:11;15.10;99.90
32476;DHT22;18929;48.008;10.882;2023-05-20T07:48:37;15.30;99.90
32476;DHT22;18929;48.008;10.882;2023-05-20T07:51:04;14.70;99.90
32476;DHT22;18929;48.008;10.882;2023-05-20T07:53:31;14.30;99.90
32476;DHT22;18929;48.008;10.882;2023-05-20T07:55:58;14.40;99.90
32476;DHT22;18929;48.008;10.882;2023-05-20T07:58:26;14.90;99.90
32476;DHT22;18929;48.008;10.882;2023-05-20T08:00:53;14.80;99.90
32476;DHT22;18929;48.008;10.882;2023-05-20T08:03:19;15.20;99.90
32476;DHT22;18929;48.008;10.882;2023-05-20T08:05:46;15.30;99.90
32476;DHT22;18929;48.008;10.882;2023-05-20T08:08:13;14.90;99.90
32476;DHT22;18929;48.008;10.882;2023-05-20T08:10:40;15.40;99.90
32476;DHT22;18929;48.008;10.882;2023-05-20T08:13:07;14.90;99.90
32476;DHT22;18929;48.008;10.882;2023-05-20T08:15:35;15.30;99.90
32476;DHT22;18929;48.008;10.882;2023-05-20T08:18:02;15.00;99.90
32476;DHT22;18929;48.008;10.882;2023-05-20T08:20:29;14.90;99.90
32476;DHT22;18929;48.008;10.882;2023-05-20T08:22:56;15.30;99.90
32476;DHT22;18929;48.008;10.882;2023-05-20T08:25:23;14.90;99.90
32476;DHT22;18929;48.008;10.882;2023-05-20T08:27:50;15.20;99.90
32476;DHT22;18929;48.008;10.882;2023-05-20T08:30:17;15.80;99.90
32476;DHT22;18929;48.008;10.882;2023-05-20T08:32:45;15.80;99.90
32476;DHT22;18929;48.008;10.882;2023-05-20T08:35:13;15.00;99.90
32476;DHT22;18929;48.008;10.882;2023-05-20T08:37:39;14.70;99.90
32476;DHT22;18929;48.008;10.882;2023-05-20T08:40:07;15.00;99.90
32476;DHT22;18929;48.008;10.882;2023-05-20T08:42:34;15.20;99.90
32476;DHT22;18929;48.008;10.882;2023-05-20T08:45:01;15.00;99.90
32476;DHT22;18929;48.008;10.882;2023-05-20T08:47:28;15.50;99.90
32476;DHT22;18929;48.008;10.882;2023-05-20T08:49:56;15.90;99.90
32476;DHT22;18929;48.008;10.882;2023-05-20T08:52:23;16.00;99.90
32476;DHT22;18929;48.008;10.882;2023-05-20T08:54:50;16.30;99.90
32476;DHT22;18929;48.008;10.882;2023-05-20T08:57:17;16.00;99.90
32476;DHT22;18929;48.008;10.882;2023-05-20T08:59:45;15.70;99.90
32476;DHT22;18929;48.008;10.882;2023-05-20T09:02:12;16.10;99.90
32476;DHT22;18929;48.008;10.882;2023-05-20T09:04:39;15.70;99.90
32476;DHT22;18929;48.008;10.882;2023-05-20T09:07:07;15.30;99.90
32476;DHT22;18929;48.008;10.882;2023-05-20T09:09:34;15.70;99.90
32476;DHT22;18929;48.008;10.882;2023-05-20T09:12:01;15.90;99.90
32476;DHT22;18929;48.008;10.882;2023-05-20T09:14:28;16.10;99.90
32476;DHT22;18929;48.008;10.882;2023-05-20T09:16:55;15.90;99.90
32476;DHT22;18929;48.008;10.882;2023-05-20T09:19:22;15.50;99.90
32476;DHT22;18929;48.008;10.882;2023-05-20T09:21:50;16.00;99.90
32476;DHT22;18929;48.008;10.882;2023-05-20T09:24:21;15.70;99.90
32476;DHT22;18929;48.008;10.882;2023-05-20T09:26:48;15.90;99.90
32476;DHT22;18929;48.008;10.882;2023-05-20T09:29:14;15.30;99.90
32476;DHT22;18929;48.008;10.882;2023-05-20T09:31:41;15.70;99.90
32476;DHT22;18929;48.008;10.882;2023-05-20T09:34:08;15.90;99.90
32476;DHT22;18929;48.008;10.882;2023-05-20T09:36:36;15.30;99.90
32476;DHT22;18929;48.008;10.882;2023-05-20T09:39:04;15.10;99.90
32476;DHT22;18929;48.008;10.882;2023-05-20T09:41:37;15.60;99.90
32476;DHT22;18929;48.008;10.882;2023-05-20T09:44:04;15.80;99.90
32476;DHT22;18929;48.008;10.882;2023-05-20T09:46:32;16.00;99.90
32476;DHT22;18929;48.008;10.882;2023-05-20T09:48:59;16.00;99.90
32476;DHT22;18929;48.008;10.882;2023-05-20T09:51:26;16.00;99.90
32476;DHT22;18929;48.008;10.882;2023-05-20T09:53:54;16.00;99.90
32476;DHT22;18929;48.008;10.882;2023-05-20T09:56:22;16.30;99.90
32476;DHT22;18929;48.008;10.882;2023-05-20T09:58:51;16.00;99.90
32476;DHT22;18929;48.008;10.882;2023-05-20T10:01:22;16.40;99.90
32476;DHT22;18929;48.008;10.882;2023-05-20T10:03:49;16.70;99.90
32476;DHT22;18929;48.008;10.882;2023-05-20T10:06:20;16.20;99.90
32476;DHT22;18929;48.008;10.882;2023-05-20T10:08:56;16.20;99.90
32476;DHT22;18929;48.008;10.882;2023-05-20T10:11:25;15.90;99.90
32476;DHT22;18929;48.008;10.882;2023-05-20T10:14:07;15.90;99.90
32476;DHT22;18929;48.008;10.882;2023-05-20T10:16:40;16.10;99.90
32476;DHT22;18929;48.008;10.882;2023-05-20T10:19:11;16.50;99.90
32476;DHT22;18929;48.008;10.882;2023-05-20T10:21:41;16.70;99.90
32476;DHT22;18929;48.008;10.882;2023-05-20T10:24:08;17.20;99.90
32476;DHT22;18929;48.008;10.882;2023-05-20T10:26:35;16.80;99.90
32476;DHT22;18929;48.008;10.882;2023-05-20T10:29:14;17.20;99.90
32476;DHT22;18929;48.008;10.882;2023-05-20T10:31:44;17.10;99.90
32476;DHT22;18929;48.008;10.882;2023-05-20T10:34:14;16.80;99.90
32476;DHT22;18929;48.008;10.882;2023-05-20T10:36:43;17.10;99.90
32476;DHT22;18929;48.008;10.882;2023-05-20T10:39:13;16.80;99.90
32476;DHT22;18929;48.008;10.882;2023-05-20T10:41:40;17.10;99.90
32476;DHT22;18929;48.008;10.882;2023-05-20T10:44:07;16.80;99.90
32476;DHT22;18929;48.008;10.882;2023-05-20T10:46:35;17.00;99.90
32476;DHT22;18929;48.008;10.882;2023-05-20T10:49:02;17.40;99.90
32476;DHT22;18929;48.008;10.882;2023-05-20T10:51:29;16.90;99.90
32476;DHT22;18929;48.008;10.882;2023-05-20T10:53:57;17.30;99.90
32476;DHT22;18929;48.008;10.882;2023-05-20T10:56:24;17.10;99.90
32476;DHT22;18929;48.008;10.882;2023-05-20T10:58:51;17.50;99.90
32476;DHT22;18929;48.008;10.882;2023-05-20T11:03:49;17.30;99.90
32476;DHT22;18929;48.008;10.882;2023-05-20T11:06:17;17.80;99.90
32476;DHT22;18929;48.008;10.882;2023-05-20T11:08:44;17.80;99.90
32476;DHT22;18929;48.008;10.882;2023-05-20T11:11:11;17.90;99.90
32476;DHT22;18929;48.008;10.882;2023-05-20T11:13:38;18.60;99.90
32476;DHT22;18929;48.008;10.882;2023-05-20T11:16:05;18.50;99.90
32476;DHT22;18929;48.008;10.882;2023-05-20T11:18:32;18.00;99.90
32476;DHT22;18929;48.008;10.882;2023-05-20T11:21:01;18.40;99.90
32476;DHT22;18929;48.008;10.882;2023-05-20T11:23:28;18.00;99.90
32476;DHT22;18929;48.008;10.882;2023-05-20T11:25:56;18.10;99.90
32476;DHT22;18929;48.008;10.882;2023-05-20T11:28:23;18.40;99.90
32476;DHT22;18929;48.008;10.882;2023-05-20T11:30:50;18.50;99.90
32476;DHT22;18929;48.008;10.882;2023-05-20T11:33:17;18.70;99.90
32476;DHT22;18929;48.008;10.882;2023-05-20T11:35:44;18.10;99.90
32476;DHT22;18929;48.008;10.882;2023-05-20T11:38:13;19.00;99.90
32476;DHT22;18929;48.008;10.882;2023-05-20T11:40:42;19.10;99.90
32476;DHT22;18929;48.008;10.882;2023-05-20T11:43:09;19.30;99.90
32476;DHT22;18929;48.008;10.882;2023-05-20T11:45:40;19.20;99.90
32476;DHT22;18929;48.008;10.882;2023-05-20T11:48:07;19.30;99.90
32476;DHT22;18929;48.008;10.882;2023-05-20T11:50:35;19.70;99.90
32476;DHT22;18929;48.008;10.882;2023-05-20T11:53:04;19.40;99.90
32476;DHT22;18929;48.008;10.882;2023-05-20T11:55:32;19.60;99.90
32476;DHT22;18929;48.008;10.882;2023-05-20T11:57:59;19.60;99.90
32476;DHT22;18929;48.008;10.882;2023-05-20T12:00:26;19.50;99.90
32476;DHT22;18929;48.008;10.882;2023-05-20T12:02:53;19.60;99.90
32476;DHT22;18929;48.008;10.882;2023-05-20T12:05:20;19.60;99.90
32476;DHT22;18929;48.008;10.882;2023-05-20T12:07:46;19.50;99.90
32476;DHT22;18929;48.008;10.882;2023-05-20T12:10:13;19.40;99.90
32476;DHT22;18929;48.008;10.882;2023-05-20T12:12:42;19.70;99.90
32476;DHT22;18929;48.008;10.882;2023-05-20T12:15:10;19.90;99.90
32476;DHT22;18929;48.008;10.882;2023-05-20T12:17:45;20.10;99.90
32476;DHT22;18929;48.008;10.882;2023-05-20T12:20:13;20.00;99.90
32476;DHT22;18929;48.008;10.882;2023-05-20T12:22:41;20.10;99.90
32476;DHT22;18929;48.008;10.882;2023-05-20T12:25:08;20.20;99.90
32476;DHT22;18929;48.008;10.882;2023-05-20T12:27:35;20.50;99.90
32476;DHT22;18929;48.008;10.882;2023-05-20T12:30:04;20.70;99.90
32476;DHT22;18929;48.008;10.882;2023-05-20T12:32:31;21.10;99.90
32476;DHT22;18929;48.008;10.882;2023-05-20T12:34:58;20.50;99.90
32476;DHT22;18929;48.008;10.882;2023-05-20T12:37:25;21.10;99.90
32476;DHT22;18929;48.008;10.882;2023-05-20T12:39:52;20.90;99.90
32476;DHT22;18929;48.008;10.882;2023-05-20T12:42:19;20.80;99.90
32476;DHT22;18929;48.008;10.882;2023-05-20T12:44:45;21.10;99.90
32476;DHT22;18929;48.008;10.882;2023-05-20T12:47:13;21.40;99.90
32476;DHT22;18929;48.008;10.882;2023-05-20T12:49:40;21.40;99.90
32476;DHT22;18929;48.008;10.882;2023-05-20T12:52:07;21.00;99.90
32476;DHT22;18929;48.008;10.882;2023-05-20T12:54:34;21.20;99.90
32476;DHT22;18929;48.008;10.882;2023-05-20T12:57:01;21.00;99.90
32476;DHT22;18929;48.008;10.882;2023-05-20T12:59:28;20.80;99.90
32476;DHT22;18929;48.008;10.882;2023-05-20T13:01:55;20.90;99.90
32476;DHT22;18929;48.008;10.882;2023-05-20T13:04:23;20.80;99.90
32476;DHT22;18929;48.008;10.882;2023-05-20T13:06:51;21.20;99.90
32476;DHT22;18929;48.008;10.882;2023-05-20T13:09:17;21.40;99.90
32476;DHT22;18929;48.008;10.882;2023-05-20T13:11:44;21.50;99.90
32476;DHT22;18929;48.008;10.882;2023-05-20T13:14:11;21.50;99.90
32476;DHT22;18929;48.008;10.882;2023-05-20T13:16:38;21.60;99.90
32476;DHT22;18929;48.008;10.882;2023-05-20T13:19:05;21.40;99.90
32476;DHT22;18929;48.008;10.882;2023-05-20T13:21:33;21.50;99.90
32476;DHT22;18929;48.008;10.882;2023-05-20T13:24:00;21.90;99.90
32476;DHT22;18929;48.008;10.882;2023-05-20T13:26:27;22.10;99.90
32476;DHT22;18929;48.008;10.882;2023-05-20T13:28:53;22.00;99.90
32476;DHT22;18929;48.008;10.882;2023-05-20T13:31:20;22.20;99.90
32476;DHT22;18929;48.008;10.882;2023-05-20T13:33:47;22.20;99.90
32476;DHT22;18929;48.008;10.882;2023-05-20T13:36:14;22.50;99.90
32476;DHT22;18929;48.008;10.882;2023-05-20T13:38:42;22.50;99.90
32476;DHT22;18929;48.008;10.882;2023-05-20T13:41:08;22.40;99.90
32476;DHT22;18929;48.008;10.882;2023-05-20T13:43:35;22.20;99.90
32476;DHT22;18929;48.008;10.882;2023-05-20T13:46:02;22.10;99.90
32476;DHT22;18929;48.008;10.882;2023-05-20T13:48:29;22.20;99.90
32476;DHT22;18929;48.008;10.882;2023-05-20T13:50:57;22.10;99.90
32476;DHT22;18929;48.008;10.882;2023-05-20T13:53:26;21.90;99.90
32476;DHT22;18929;48.008;10.882;2023-05-20T13:55:54;22.00;99.90
32476;DHT22;18929;48.008;10.882;2023-05-20T13:58:21;22.10;99.90
32476;DHT22;18929;48.008;10.882;2023-05-20T14:00:47;22.30;99.90
32476;DHT22;18929;48.008;10.882;2023-05-20T14:03:14;22.40;99.90
32476;DHT22;18929;48.008;10.882;2023-05-20T14:05:41;22.60;99.90
32476;DHT22;18929;48.008;10.882;2023-05-20T14:08:08;22.80;99.90
32476;DHT22;18929;48.008;10.882;2023-05-20T14:10:35;22.30;99.90
32476;DHT22;18929;48.008;10.882;2023-05-20T14:13:03;22.40;99.90
32476;DHT22;18929;48.008;10.882;2023-05-20T14:15:30;22.40;99.90
32476;DHT22;18929;48.008;10.882;2023-05-20T14:17:57;22.30;99.90
32476;DHT22;18929;48.008;10.882;2023-05-20T14:20:24;22.40;99.90
32476;DHT22;18929;48.008;10.882;2023-05-20T14:22:53;22.70;99.90
32476;DHT22;18929;48.008;10.882;2023-05-20T14:25:19;22.70;99.90
32476;DHT22;18929;48.008;10.882;2023-05-20T14:27:46;23.00;99.90
32476;DHT22;18929;48.008;10.882;2023-05-20T14:30:14;22.90;99.90
32476;DHT22;18929;48.008;10.882;2023-05-20T14:32:41;22.80;99.90
32476;DHT22;18929;48.008;10.882;2023-05-20T14:35:08;23.00;99.90
32476;DHT22;18929;48.008;10.882;2023-05-20T14:37:35;23.50;99.90
32476;DHT22;18929;48.008;10.882;2023-05-20T14:40:03;23.70;99.90
32476;DHT22;18929;48.008;10.882;2023-05-20T14:42:31;23.40;99.90
32476;DHT22;18929;48.008;10.882;2023-05-20T14:44:58;23.40;99.90
32476;DHT22;18929;48.008;10.882;2023-05-20T14:47:26;22.90;99.90
32476;DHT22;18929;48.008;10.882;2023-05-20T14:49:53;23.00;99.90
32476;DHT22;18929;48.008;10.882;2023-05-20T14:52:20;23.30;99.90
32476;DHT22;18929;48.008;10.882;2023-05-20T14:54:47;23.40;99.90
32476;DHT22;18929;48.008;10.882;2023-05-20T14:57:13;23.30;99.90
32476;DHT22;18929;48.008;10.882;2023-05-20T14:59:41;23.50;99.90
32476;DHT22;18929;48.008;10.882;2023-05-20T15:02:08;23.30;99.90
32476;DHT22;18929;48.008;10.882;2023-05-20T15:04:37;23.10;99.90
32476;DHT22;18929;48.008;10.882;2023-05-20T15:07:04;23.30;99.90
32476;DHT22;18929;48.008;10.882;2023-05-20T15:09:31;23.30;99.90
32476;DHT22;18929;48.008;10.882;2023-05-20T15:11:59;23.30;99.90
32476;DHT22;18929;48.008;10.882;2023-05-20T15:14:26;23.40;99.90
32476;DHT22;18929;48.008;10.882;2023-05-20T15:16:53;23.30;99.90
32476;DHT22;18929;48.008;10.882;2023-05-20T15:19:19;22.70;99.90